sensor_id;sensor_type;location;lat;lon;timestamp;P1;P2;P0
46885;PMS5003;32622;48.202;11.326;2022-11-13T00:01:24;47;46;
46885;PMS5003;32622;48.202;11.326;2022-11-13T00:03:28;48;47;
46885;PMS5003;32622;48.202;11.326;2022-11-13T00:05:31;45;44;
46885;PMS5003;32622;48.202;11.326;2022-11-13T00:07:34;45;44;
46885;PMS5003;32622;48.202;11.326;2022-11-13T00:09:37;45;44;
46885;PMS5003;32622;48.202;11.326;2022-11-13T00:11:41;45;44;
46885;PMS5003;32622;48.202;11.326;2022-11-13T00:13:44;45;44;
46885;PMS5003;32622;48.202;11.326;2022-11-13T00:15:55;45;44;
46885;PMS5003;32622;48.202;11.326;2022-11-13T00:17:59;45;44;
46885;PMS5003;32622;48.202;11.326;2022-11-13T00:20:02;45;44;
46885;PMS5003;32622;48.202;11.326;2022-11-13T00:22:06;43;43;
46885;PMS5003;32622;48.202;11.326;2022-11-13T00:24:09;43;43;
46885;PMS5003;32622;48.202;11.326;2022-11-13T00:26:13;43;43;
46885;PMS5003;32622;48.202;11.326;2022-11-13T00:28:17;41;41;
46885;PMS5003;32622;48.202;11.326;2022-11-13T00:30:20;41;41;
46885;PMS5003;32622;48.202;11.326;2022-11-13T00:32:23;41;41;
46885;PMS5003;32622;48.202;11.326;2022-11-13T00:34:26;41;41;
46885;PMS5003;32622;48.202;11.326;2022-11-13T00:36:29;41;41;
46885;PMS5003;32622;48.202;11.326;2022-11-13T00:38:33;41;41;
46885;PMS5003;32622;48.202;11.326;2022-11-13T00:40:36;41;41;
46885;PMS5003;32622;48.202;11.326;2022-11-13T00:42:39;41;41;
46885;PMS5003;32622;48.202;11.326;2022-11-13T00:44:42;41;41;
46885;PMS5003;32622;48.202;11.326;2022-11-13T00:46:45;40;40;
46885;PMS5003;32622;48.202;11.326;2022-11-13T00:48:48;40;40;
46885;PMS5003;32622;48.202;11.326;2022-11-13T00:50:51;40;40;
46885;PMS5003;32622;48.202;11.326;2022-11-13T00:52:55;39;39;
46885;PMS5003;32622;48.202;11.326;2022-11-13T00:54:58;39;39;
46885;PMS5003;32622;48.202;11.326;2022-11-13T00:57:01;39;39;
46885;PMS5003;32622;48.202;11.326;2022-11-13T00:59:04;40;40;
46885;PMS5003;32622;48.202;11.326;2022-11-13T01:01:08;41;40;
46885;PMS5003;32622;48.202;11.326;2022-11-13T01:03:14;41;40;
46885;PMS5003;32622;48.202;11.326;2022-11-13T01:05:19;44;43;
46885;PMS5003;32622;48.202;11.326;2022-11-13T01:07:22;46;45;
46885;PMS5003;32622;48.202;11.326;2022-11-13T01:09:25;48;47;
46885;PMS5003;32622;48.202;11.326;2022-11-13T01:11:29;50;49;
46885;PMS5003;32622;48.202;11.326;2022-11-13T01:13:32;50;49;
46885;PMS5003;32622;48.202;11.326;2022-11-13T01:15:37;51;49;
46885;PMS5003;32622;48.202;11.326;2022-11-13T01:17:41;53;49;
46885;PMS5003;32622;48.202;11.326;2022-11-13T01:19:44;52;47;
46885;PMS5003;32622;48.202;11.326;2022-11-13T01:21:47;50;46;
46885;PMS5003;32622;48.202;11.326;2022-11-13T01:23:50;52;47;
46885;PMS5003;32622;48.202;11.326;2022-11-13T01:25:53;52;47;
46885;PMS5003;32622;48.202;11.326;2022-11-13T01:27:56;52;47;
46885;PMS5003;32622;48.202;11.326;2022-11-13T01:29:59;50;44;
46885;PMS5003;32622;48.202;11.326;2022-11-13T01:32:02;50;44;
46885;PMS5003;32622;48.202;11.326;2022-11-13T01:34:05;50;44;
46885;PMS5003;32622;48.202;11.326;2022-11-13T01:36:11;49;43;
46885;PMS5003;32622;48.202;11.326;2022-11-13T01:38:16;49;43;
46885;PMS5003;32622;48.202;11.326;2022-11-13T01:40:19;49;43;
46885;PMS5003;32622;48.202;11.326;2022-11-13T01:42:22;48;42;
46885;PMS5003;32622;48.202;11.326;2022-11-13T01:44:25;47;41;
46885;PMS5003;32622;48.202;11.326;2022-11-13T01:46:46;47;41;
46885;PMS5003;32622;48.202;11.326;2022-11-13T01:48:55;45;39;
46885;PMS5003;32622;48.202;11.326;2022-11-13T01:51:03;45;39;
46885;PMS5003;32622;48.202;11.326;2022-11-13T01:53:13;45;39;
46885;PMS5003;32622;48.202;11.326;2022-11-13T01:55:16;47;40;
46885;PMS5003;32622;48.202;11.326;2022-11-13T01:57:20;47;40;
46885;PMS5003;32622;48.202;11.326;2022-11-13T01:59:26;47;40;
46885;PMS5003;32622;48.202;11.326;2022-11-13T02:01:32;47;41;
46885;PMS5003;32622;48.202;11.326;2022-11-13T02:03:36;47;41;
46885;PMS5003;32622;48.202;11.326;2022-11-13T02:05:39;48;42;
46885;PMS5003;32622;48.202;11.326;2022-11-13T02:07:42;46;41;
46885;PMS5003;32622;48.202;11.326;2022-11-13T02:09:47;48;42;
46885;PMS5003;32622;48.202;11.326;2022-11-13T02:11:52;48;41;
46885;PMS5003;32622;48.202;11.326;2022-11-13T02:13:55;45;40;
46885;PMS5003;32622;48.202;11.326;2022-11-13T02:15:59;45;41;
46885;PMS5003;32622;48.202;11.326;2022-11-13T02:18:03;45;40;
46885;PMS5003;32622;48.202;11.326;2022-11-13T02:20:07;47;43;
46885;PMS5003;32622;48.202;11.326;2022-11-13T02:22:13;48;42;
46885;PMS5003;32622;48.202;11.326;2022-11-13T02:24:22;46;41;
46885;PMS5003;32622;48.202;11.326;2022-11-13T02:26:28;44;39;
46885;PMS5003;32622;48.202;11.326;2022-11-13T02:28:33;44;40;
46885;PMS5003;32622;48.202;11.326;2022-11-13T02:30:37;42;40;
46885;PMS5003;32622;48.202;11.326;2022-11-13T02:32:42;42;41;
46885;PMS5003;32622;48.202;11.326;2022-11-13T02:34:46;42;41;
46885;PMS5003;32622;48.202;11.326;2022-11-13T02:36:49;42;41;
46885;PMS5003;32622;48.202;11.326;2022-11-13T02:38:52;43;41;
46885;PMS5003;32622;48.202;11.326;2022-11-13T02:40:57;43;41;
46885;PMS5003;32622;48.202;11.326;2022-11-13T02:43:00;43;41;
46885;PMS5003;32622;48.202;11.326;2022-11-13T02:45:04;44;42;
46885;PMS5003;32622;48.202;11.326;2022-11-13T02:47:08;44;42;
46885;PMS5003;32622;48.202;11.326;2022-11-13T02:49:11;44;42;
46885;PMS5003;32622;48.202;11.326;2022-11-13T02:51:14;45;44;
46885;PMS5003;32622;48.202;11.326;2022-11-13T02:53:17;45;44;
46885;PMS5003;32622;48.202;11.326;2022-11-13T02:55:20;45;44;
46885;PMS5003;32622;48.202;11.326;2022-11-13T02:57:22;44;43;
46885;PMS5003;32622;48.202;11.326;2022-11-13T02:59:25;44;43;
46885;PMS5003;32622;48.202;11.326;2022-11-13T03:01:28;44;43;
46885;PMS5003;32622;48.202;11.326;2022-11-13T03:03:31;44;44;
46885;PMS5003;32622;48.202;11.326;2022-11-13T03:05:35;44;44;
46885;PMS5003;32622;48.202;11.326;2022-11-13T03:07:38;44;44;
46885;PMS5003;32622;48.202;11.326;2022-11-13T03:09:41;44;43;
46885;PMS5003;32622;48.202;11.326;2022-11-13T03:11:44;44;43;
46885;PMS5003;32622;48.202;11.326;2022-11-13T03:13:47;44;43;
46885;PMS5003;32622;48.202;11.326;2022-11-13T03:15:50;47;46;
46885;PMS5003;32622;48.202;11.326;2022-11-13T03:17:53;47;46;
46885;PMS5003;32622;48.202;11.326;2022-11-13T03:19:56;47;46;
46885;PMS5003;32622;48.202;11.326;2022-11-13T03:21:59;48;47;
46885;PMS5003;32622;48.202;11.326;2022-11-13T03:24:02;48;47;
46885;PMS5003;32622;48.202;11.326;2022-11-13T03:26:07;48;47;
46885;PMS5003;32622;48.202;11.326;2022-11-13T03:28:11;48;47;
46885;PMS5003;32622;48.202;11.326;2022-11-13T03:30:14;48;47;
46885;PMS5003;32622;48.202;11.326;2022-11-13T03:32:17;48;47;
46885;PMS5003;32622;48.202;11.326;2022-11-13T03:34:20;49;47;
46885;PMS5003;32622;48.202;11.326;2022-11-13T03:36:24;49;47;
46885;PMS5003;32622;48.202;11.326;2022-11-13T03:38:27;49;47;
46885;PMS5003;32622;48.202;11.326;2022-11-13T03:40:31;49;47;
46885;PMS5003;32622;48.202;11.326;2022-11-13T03:42:34;49;47;
46885;PMS5003;32622;48.202;11.326;2022-11-13T03:44:37;49;47;
46885;PMS5003;32622;48.202;11.326;2022-11-13T03:46:41;47;45;
46885;PMS5003;32622;48.202;11.326;2022-11-13T03:48:45;47;45;
46885;PMS5003;32622;48.202;11.326;2022-11-13T03:50:49;47;45;
46885;PMS5003;32622;48.202;11.326;2022-11-13T03:52:55;47;45;
46885;PMS5003;32622;48.202;11.326;2022-11-13T03:54:58;47;45;
46885;PMS5003;32622;48.202;11.326;2022-11-13T03:57:01;47;45;
46885;PMS5003;32622;48.202;11.326;2022-11-13T03:59:05;47;45;
46885;PMS5003;32622;48.202;11.326;2022-11-13T04:01:09;47;45;
46885;PMS5003;32622;48.202;11.326;2022-11-13T04:03:12;47;45;
46885;PMS5003;32622;48.202;11.326;2022-11-13T04:05:15;47;45;
46885;PMS5003;32622;48.202;11.326;2022-11-13T04:07:19;47;45;
46885;PMS5003;32622;48.202;11.326;2022-11-13T04:09:22;47;45;
46885;PMS5003;32622;48.202;11.326;2022-11-13T04:11:26;46;45;
46885;PMS5003;32622;48.202;11.326;2022-11-13T04:13:34;45;44;
46885;PMS5003;32622;48.202;11.326;2022-11-13T04:15:38;45;44;
46885;PMS5003;32622;48.202;11.326;2022-11-13T04:17:41;44;43;
46885;PMS5003;32622;48.202;11.326;2022-11-13T04:19:45;45;44;
46885;PMS5003;32622;48.202;11.326;2022-11-13T04:21:49;45;44;
46885;PMS5003;32622;48.202;11.326;2022-11-13T04:23:52;44;42;
46885;PMS5003;32622;48.202;11.326;2022-11-13T04:25:56;44;42;
46885;PMS5003;32622;48.202;11.326;2022-11-13T04:27:59;44;42;
46885;PMS5003;32622;48.202;11.326;2022-11-13T04:30:03;47;44;
46885;PMS5003;32622;48.202;11.326;2022-11-13T04:32:08;48;43;
46885;PMS5003;32622;48.202;11.326;2022-11-13T04:34:11;50;45;
46885;PMS5003;32622;48.202;11.326;2022-11-13T04:36:15;49;45;
46885;PMS5003;32622;48.202;11.326;2022-11-13T04:38:18;51;45;
46885;PMS5003;32622;48.202;11.326;2022-11-13T04:40:21;52;45;
46885;PMS5003;32622;48.202;11.326;2022-11-13T04:42:25;51;44;
46885;PMS5003;32622;48.202;11.326;2022-11-13T04:44:28;53;45;
46885;PMS5003;32622;48.202;11.326;2022-11-13T04:46:32;54;46;
46885;PMS5003;32622;48.202;11.326;2022-11-13T04:48:35;56;48;
46885;PMS5003;32622;48.202;11.326;2022-11-13T04:50:39;53;47;
46885;PMS5003;32622;48.202;11.326;2022-11-13T04:52:43;52;47;
46885;PMS5003;32622;48.202;11.326;2022-11-13T04:54:47;52;47;
46885;PMS5003;32622;48.202;11.326;2022-11-13T04:56:50;52;47;
46885;PMS5003;32622;48.202;11.326;2022-11-13T04:58:59;52;47;
46885;PMS5003;32622;48.202;11.326;2022-11-13T05:01:02;56;50;
46885;PMS5003;32622;48.202;11.326;2022-11-13T05:03:06;56;50;
46885;PMS5003;32622;48.202;11.326;2022-11-13T05:05:09;56;50;
46885;PMS5003;32622;48.202;11.326;2022-11-13T05:07:12;57;52;
46885;PMS5003;32622;48.202;11.326;2022-11-13T05:09:16;57;52;
46885;PMS5003;32622;48.202;11.326;2022-11-13T05:11:19;57;52;
46885;PMS5003;32622;48.202;11.326;2022-11-13T05:13:22;56;52;
46885;PMS5003;32622;48.202;11.326;2022-11-13T05:15:26;59;55;
46885;PMS5003;32622;48.202;11.326;2022-11-13T05:17:30;58;53;
46885;PMS5003;32622;48.202;11.326;2022-11-13T05:19:33;57;53;
46885;PMS5003;32622;48.202;11.326;2022-11-13T05:21:38;57;54;
46885;PMS5003;32622;48.202;11.326;2022-11-13T05:23:42;59;56;
46885;PMS5003;32622;48.202;11.326;2022-11-13T05:25:45;61;59;
46885;PMS5003;32622;48.202;11.326;2022-11-13T05:27:48;60;59;
46885;PMS5003;32622;48.202;11.326;2022-11-13T05:29:52;60;58;
46885;PMS5003;32622;48.202;11.326;2022-11-13T05:31:55;57;55;
46885;PMS5003;32622;48.202;11.326;2022-11-13T05:33:59;59;56;
46885;PMS5003;32622;48.202;11.326;2022-11-13T05:36:08;63;59;
46885;PMS5003;32622;48.202;11.326;2022-11-13T05:38:13;67;63;
46885;PMS5003;32622;48.202;11.326;2022-11-13T05:40:17;67;63;
46885;PMS5003;32622;48.202;11.326;2022-11-13T05:42:20;66;62;
46885;PMS5003;32622;48.202;11.326;2022-11-13T05:44:24;69;63;
46885;PMS5003;32622;48.202;11.326;2022-11-13T05:46:28;69;63;
46885;PMS5003;32622;48.202;11.326;2022-11-13T05:48:33;69;63;
46885;PMS5003;32622;48.202;11.326;2022-11-13T05:50:37;70;64;
46885;PMS5003;32622;48.202;11.326;2022-11-13T05:52:40;70;64;
46885;PMS5003;32622;48.202;11.326;2022-11-13T05:54:43;70;64;
46885;PMS5003;32622;48.202;11.326;2022-11-13T05:56:47;67;61;
46885;PMS5003;32622;48.202;11.326;2022-11-13T05:58:51;67;61;
46885;PMS5003;32622;48.202;11.326;2022-11-13T06:01:03;67;61;
46885;PMS5003;32622;48.202;11.326;2022-11-13T06:03:08;62;57;
46885;PMS5003;32622;48.202;11.326;2022-11-13T06:05:11;62;57;
46885;PMS5003;32622;48.202;11.326;2022-11-13T06:07:15;62;57;
46885;PMS5003;32622;48.202;11.326;2022-11-13T06:09:19;62;57;
46885;PMS5003;32622;48.202;11.326;2022-11-13T06:11:24;66;60;
46885;PMS5003;32622;48.202;11.326;2022-11-13T06:13:40;67;62;
46885;PMS5003;32622;48.202;11.326;2022-11-13T06:15:43;64;61;
46885;PMS5003;32622;48.202;11.326;2022-11-13T06:17:47;62;57;
46885;PMS5003;32622;48.202;11.326;2022-11-13T06:19:50;61;57;
46885;PMS5003;32622;48.202;11.326;2022-11-13T06:21:53;60;57;
46885;PMS5003;32622;48.202;11.326;2022-11-13T06:23:57;60;58;
46885;PMS5003;32622;48.202;11.326;2022-11-13T06:26:01;62;59;
46885;PMS5003;32622;48.202;11.326;2022-11-13T06:28:05;66;62;
46885;PMS5003;32622;48.202;11.326;2022-11-13T06:30:10;66;61;
46885;PMS5003;32622;48.202;11.326;2022-11-13T06:32:14;64;60;
46885;PMS5003;32622;48.202;11.326;2022-11-13T06:34:17;62;59;
46885;PMS5003;32622;48.202;11.326;2022-11-13T06:36:21;62;59;
46885;PMS5003;32622;48.202;11.326;2022-11-13T06:38:25;62;59;
46885;PMS5003;32622;48.202;11.326;2022-11-13T06:40:33;63;60;
46885;PMS5003;32622;48.202;11.326;2022-11-13T06:42:39;63;60;
46885;PMS5003;32622;48.202;11.326;2022-11-13T06:44:42;63;60;
46885;PMS5003;32622;48.202;11.326;2022-11-13T06:46:45;63;61;
46885;PMS5003;32622;48.202;11.326;2022-11-13T06:48:54;63;61;
46885;PMS5003;32622;48.202;11.326;2022-11-13T06:50:59;63;61;
46885;PMS5003;32622;48.202;11.326;2022-11-13T06:53:03;62;60;
46885;PMS5003;32622;48.202;11.326;2022-11-13T06:55:06;62;60;
46885;PMS5003;32622;48.202;11.326;2022-11-13T06:57:10;62;60;
46885;PMS5003;32622;48.202;11.326;2022-11-13T06:59:13;60;58;
46885;PMS5003;32622;48.202;11.326;2022-11-13T07:01:17;60;58;
46885;PMS5003;32622;48.202;11.326;2022-11-13T07:03:25;60;58;
46885;PMS5003;32622;48.202;11.326;2022-11-13T07:05:29;61;56;
46885;PMS5003;32622;48.202;11.326;2022-11-13T07:07:32;61;56;
46885;PMS5003;32622;48.202;11.326;2022-11-13T07:09:35;61;56;
46885;PMS5003;32622;48.202;11.326;2022-11-13T07:11:39;61;57;
46885;PMS5003;32622;48.202;11.326;2022-11-13T07:13:43;61;57;
46885;PMS5003;32622;48.202;11.326;2022-11-13T07:15:51;61;57;
46885;PMS5003;32622;48.202;11.326;2022-11-13T07:17:55;58;54;
46885;PMS5003;32622;48.202;11.326;2022-11-13T07:20:02;58;54;
46885;PMS5003;32622;48.202;11.326;2022-11-13T07:22:07;57;53;
46885;PMS5003;32622;48.202;11.326;2022-11-13T07:24:10;55;52;
46885;PMS5003;32622;48.202;11.326;2022-11-13T07:26:14;55;52;
46885;PMS5003;32622;48.202;11.326;2022-11-13T07:28:17;56;53;
46885;PMS5003;32622;48.202;11.326;2022-11-13T07:30:23;56;54;
46885;PMS5003;32622;48.202;11.326;2022-11-13T07:32:26;56;54;
46885;PMS5003;32622;48.202;11.326;2022-11-13T07:34:29;56;54;
46885;PMS5003;32622;48.202;11.326;2022-11-13T07:36:33;56;53;
46885;PMS5003;32622;48.202;11.326;2022-11-13T07:38:36;56;53;
46885;PMS5003;32622;48.202;11.326;2022-11-13T07:40:40;56;53;
46885;PMS5003;32622;48.202;11.326;2022-11-13T07:42:43;55;52;
46885;PMS5003;32622;48.202;11.326;2022-11-13T07:44:48;55;52;
46885;PMS5003;32622;48.202;11.326;2022-11-13T07:46:51;55;52;
46885;PMS5003;32622;48.202;11.326;2022-11-13T07:48:56;56;53;
46885;PMS5003;32622;48.202;11.326;2022-11-13T07:51:04;56;53;
46885;PMS5003;32622;48.202;11.326;2022-11-13T07:53:08;56;53;
46885;PMS5003;32622;48.202;11.326;2022-11-13T07:55:18;56;53;
46885;PMS5003;32622;48.202;11.326;2022-11-13T07:57:21;55;52;
46885;PMS5003;32622;48.202;11.326;2022-11-13T07:59:25;55;52;
46885;PMS5003;32622;48.202;11.326;2022-11-13T08:01:32;55;52;
46885;PMS5003;32622;48.202;11.326;2022-11-13T08:03:36;55;52;
46885;PMS5003;32622;48.202;11.326;2022-11-13T08:05:41;55;52;
46885;PMS5003;32622;48.202;11.326;2022-11-13T08:07:47;53;53;
46885;PMS5003;32622;48.202;11.326;2022-11-13T08:09:53;53;53;
46885;PMS5003;32622;48.202;11.326;2022-11-13T08:12:02;53;53;
46885;PMS5003;32622;48.202;11.326;2022-11-13T08:14:07;53;52;
46885;PMS5003;32622;48.202;11.326;2022-11-13T08:16:13;53;52;
46885;PMS5003;32622;48.202;11.326;2022-11-13T08:18:16;53;52;
46885;PMS5003;32622;48.202;11.326;2022-11-13T08:20:19;53;51;
46885;PMS5003;32622;48.202;11.326;2022-11-13T08:22:22;53;51;
46885;PMS5003;32622;48.202;11.326;2022-11-13T08:24:26;53;51;
46885;PMS5003;32622;48.202;11.326;2022-11-13T08:26:29;53;52;
46885;PMS5003;32622;48.202;11.326;2022-11-13T08:28:32;53;52;
46885;PMS5003;32622;48.202;11.326;2022-11-13T08:30:36;53;52;
46885;PMS5003;32622;48.202;11.326;2022-11-13T08:32:40;54;51;
46885;PMS5003;32622;48.202;11.326;2022-11-13T08:34:44;54;51;
46885;PMS5003;32622;48.202;11.326;2022-11-13T08:36:47;54;51;
46885;PMS5003;32622;48.202;11.326;2022-11-13T08:38:51;52;50;
46885;PMS5003;32622;48.202;11.326;2022-11-13T08:40:55;53;50;
46885;PMS5003;32622;48.202;11.326;2022-11-13T08:42:59;53;51;
46885;PMS5003;32622;48.202;11.326;2022-11-13T08:45:04;52;49;
46885;PMS5003;32622;48.202;11.326;2022-11-13T08:47:07;52;49;
46885;PMS5003;32622;48.202;11.326;2022-11-13T08:49:12;52;50;
46885;PMS5003;32622;48.202;11.326;2022-11-13T08:51:20;51;48;
46885;PMS5003;32622;48.202;11.326;2022-11-13T08:53:24;50;49;
46885;PMS5003;32622;48.202;11.326;2022-11-13T08:55:27;50;48;
46885;PMS5003;32622;48.202;11.326;2022-11-13T08:57:36;49;47;
46885;PMS5003;32622;48.202;11.326;2022-11-13T08:59:40;49;48;
46885;PMS5003;32622;48.202;11.326;2022-11-13T09:01:44;47;46;
46885;PMS5003;32622;48.202;11.326;2022-11-13T09:03:48;47;46;
46885;PMS5003;32622;48.202;11.326;2022-11-13T09:05:52;47;46;
46885;PMS5003;32622;48.202;11.326;2022-11-13T09:07:56;48;47;
46885;PMS5003;32622;48.202;11.326;2022-11-13T09:10:01;48;47;
46885;PMS5003;32622;48.202;11.326;2022-11-13T09:12:10;48;47;
46885;PMS5003;32622;48.202;11.326;2022-11-13T09:14:14;48;47;
46885;PMS5003;32622;48.202;11.326;2022-11-13T09:16:18;48;47;
46885;PMS5003;32622;48.202;11.326;2022-11-13T09:18:22;48;47;
46885;PMS5003;32622;48.202;11.326;2022-11-13T09:20:26;48;47;
46885;PMS5003;32622;48.202;11.326;2022-11-13T09:22:31;46;45;
46885;PMS5003;32622;48.202;11.326;2022-11-13T09:24:35;46;45;
46885;PMS5003;32622;48.202;11.326;2022-11-13T09:26:41;46;45;
46885;PMS5003;32622;48.202;11.326;2022-11-13T09:28:46;46;45;
46885;PMS5003;32622;48.202;11.326;2022-11-13T09:30:50;46;45;
46885;PMS5003;32622;48.202;11.326;2022-11-13T09:32:54;46;45;
46885;PMS5003;32622;48.202;11.326;2022-11-13T09:34:58;47;46;
46885;PMS5003;32622;48.202;11.326;2022-11-13T09:37:07;47;46;
46885;PMS5003;32622;48.202;11.326;2022-11-13T09:40:45;53;49;
46885;PMS5003;32622;48.202;11.326;2022-11-13T09:42:52;53;50;
46885;PMS5003;32622;48.202;11.326;2022-11-13T09:44:56;53;50;
46885;PMS5003;32622;48.202;11.326;2022-11-13T09:47:05;53;50;
46885;PMS5003;32622;48.202;11.326;2022-11-13T09:49:14;52;48;
46885;PMS5003;32622;48.202;11.326;2022-11-13T09:51:20;52;48;
46885;PMS5003;32622;48.202;11.326;2022-11-13T09:53:28;52;48;
46885;PMS5003;32622;48.202;11.326;2022-11-13T09:55:40;53;49;
46885;PMS5003;32622;48.202;11.326;2022-11-13T09:57:56;53;49;
46885;PMS5003;32622;48.202;11.326;2022-11-13T10:00:09;53;49;
46885;PMS5003;32622;48.202;11.326;2022-11-13T10:02:17;53;49;
46885;PMS5003;32622;48.202;11.326;2022-11-13T10:04:36;53;49;
46885;PMS5003;32622;48.202;11.326;2022-11-13T10:06:51;53;49;
46885;PMS5003;32622;48.202;11.326;2022-11-13T10:09:03;52;49;
46885;PMS5003;32622;48.202;11.326;2022-11-13T10:11:18;52;49;
46885;PMS5003;32622;48.202;11.326;2022-11-13T10:13:30;52;49;
46885;PMS5003;32622;48.202;11.326;2022-11-13T10:15:39;53;49;
46885;PMS5003;32622;48.202;11.326;2022-11-13T10:17:45;53;49;
46885;PMS5003;32622;48.202;11.326;2022-11-13T10:19:53;52;48;
46885;PMS5003;32622;48.202;11.326;2022-11-13T10:22:01;53;47;
46885;PMS5003;32622;48.202;11.326;2022-11-13T10:24:13;53;47;
46885;PMS5003;32622;48.202;11.326;2022-11-13T10:26:19;54;48;
46885;PMS5003;32622;48.202;11.326;2022-11-13T10:28:25;54;48;
46885;PMS5003;32622;48.202;11.326;2022-11-13T10:30:29;54;48;
46885;PMS5003;32622;48.202;11.326;2022-11-13T10:32:32;54;48;
46885;PMS5003;32622;48.202;11.326;2022-11-13T10:34:35;50;48;
46885;PMS5003;32622;48.202;11.326;2022-11-13T10:36:59;50;48;
46885;PMS5003;32622;48.202;11.326;2022-11-13T10:39:40;50;48;
46885;PMS5003;32622;48.202;11.326;2022-11-13T10:41:44;50;48;
46885;PMS5003;32622;48.202;11.326;2022-11-13T10:43:50;50;48;
46885;PMS5003;32622;48.202;11.326;2022-11-13T10:45:56;50;48;
46885;PMS5003;32622;48.202;11.326;2022-11-13T10:48:01;52;49;
46885;PMS5003;32622;48.202;11.326;2022-11-13T10:50:08;53;50;
46885;PMS5003;32622;48.202;11.326;2022-11-13T10:52:15;54;51;
46885;PMS5003;32622;48.202;11.326;2022-11-13T10:54:23;53;50;
46885;PMS5003;32622;48.202;11.326;2022-11-13T10:56:29;53;50;
46885;PMS5003;32622;48.202;11.326;2022-11-13T10:58:33;53;50;
46885;PMS5003;32622;48.202;11.326;2022-11-13T11:00:39;51;50;
46885;PMS5003;32622;48.202;11.326;2022-11-13T11:02:47;52;51;
46885;PMS5003;32622;48.202;11.326;2022-11-13T11:05:01;52;51;
46885;PMS5003;32622;48.202;11.326;2022-11-13T11:07:28;54;52;
46885;PMS5003;32622;48.202;11.326;2022-11-13T11:09:36;53;52;
46885;PMS5003;32622;48.202;11.326;2022-11-13T11:11:46;52;51;
46885;PMS5003;32622;48.202;11.326;2022-11-13T11:14:04;52;51;
46885;PMS5003;32622;48.202;11.326;2022-11-13T11:16:20;52;51;
46885;PMS5003;32622;48.202;11.326;2022-11-13T11:21:22;52;51;
46885;PMS5003;32622;48.202;11.326;2022-11-13T11:23:31;54;51;
46885;PMS5003;32622;48.202;11.326;2022-11-13T11:25:42;54;51;
46885;PMS5003;32622;48.202;11.326;2022-11-13T11:27:51;54;51;
46885;PMS5003;32622;48.202;11.326;2022-11-13T11:29:59;55;51;
46885;PMS5003;32622;48.202;11.326;2022-11-13T11:32:08;55;51;
46885;PMS5003;32622;48.202;11.326;2022-11-13T11:34:18;55;51;
46885;PMS5003;32622;48.202;11.326;2022-11-13T11:36:28;54;49;
46885;PMS5003;32622;48.202;11.326;2022-11-13T11:38:34;54;49;
46885;PMS5003;32622;48.202;11.326;2022-11-13T11:40:49;54;49;
46885;PMS5003;32622;48.202;11.326;2022-11-13T11:42:59;55;50;
46885;PMS5003;32622;48.202;11.326;2022-11-13T11:45:11;55;50;
46885;PMS5003;32622;48.202;11.326;2022-11-13T11:47:17;55;50;
46885;PMS5003;32622;48.202;11.326;2022-11-13T11:49:20;59;51;
46885;PMS5003;32622;48.202;11.326;2022-11-13T11:51:29;59;51;
46885;PMS5003;32622;48.202;11.326;2022-11-13T11:53:34;59;51;
46885;PMS5003;32622;48.202;11.326;2022-11-13T11:55:51;61;52;
46885;PMS5003;32622;48.202;11.326;2022-11-13T11:58:04;61;52;
46885;PMS5003;32622;48.202;11.326;2022-11-13T12:00:17;61;52;
46885;PMS5003;32622;48.202;11.326;2022-11-13T12:02:29;60;52;
46885;PMS5003;32622;48.202;11.326;2022-11-13T12:04:51;60;52;
46885;PMS5003;32622;48.202;11.326;2022-11-13T12:07:06;60;52;
46885;PMS5003;32622;48.202;11.326;2022-11-13T12:09:20;59;51;
46885;PMS5003;32622;48.202;11.326;2022-11-13T12:11:28;59;51;
46885;PMS5003;32622;48.202;11.326;2022-11-13T12:13:36;59;51;
46885;PMS5003;32622;48.202;11.326;2022-11-13T12:15:48;62;53;
46885;PMS5003;32622;48.202;11.326;2022-11-13T12:17:57;64;53;
46885;PMS5003;32622;48.202;11.326;2022-11-13T12:20:08;62;54;
46885;PMS5003;32622;48.202;11.326;2022-11-13T12:22:23;61;53;
46885;PMS5003;32622;48.202;11.326;2022-11-13T12:24:42;63;55;
46885;PMS5003;32622;48.202;11.326;2022-11-13T12:26:59;62;56;
46885;PMS5003;32622;48.202;11.326;2022-11-13T12:29:22;59;56;
46885;PMS5003;32622;48.202;11.326;2022-11-13T12:36:10;56;54;
46885;PMS5003;32622;48.202;11.326;2022-11-13T12:38:20;55;54;
46885;PMS5003;32622;48.202;11.326;2022-11-13T12:40:37;57;56;
46885;PMS5003;32622;48.202;11.326;2022-11-13T12:43:05;59;58;
46885;PMS5003;32622;48.202;11.326;2022-11-13T12:45:24;59;58;
46885;PMS5003;32622;48.202;11.326;2022-11-13T12:47:41;59;57;
46885;PMS5003;32622;48.202;11.326;2022-11-13T12:49:44;59;57;
46885;PMS5003;32622;48.202;11.326;2022-11-13T12:51:52;59;57;
46885;PMS5003;32622;48.202;11.326;2022-11-13T12:53:57;57;56;
46885;PMS5003;32622;48.202;11.326;2022-11-13T12:56:01;57;56;
46885;PMS5003;32622;48.202;11.326;2022-11-13T12:58:07;57;56;
46885;PMS5003;32622;48.202;11.326;2022-11-13T13:00:27;57;55;
46885;PMS5003;32622;48.202;11.326;2022-11-13T13:02:45;57;55;
46885;PMS5003;32622;48.202;11.326;2022-11-13T13:05:00;57;55;
46885;PMS5003;32622;48.202;11.326;2022-11-13T13:07:16;58;56;
46885;PMS5003;32622;48.202;11.326;2022-11-13T13:09:33;58;56;
46885;PMS5003;32622;48.202;11.326;2022-11-13T13:11:50;58;56;
46885;PMS5003;32622;48.202;11.326;2022-11-13T13:14:09;56;55;
46885;PMS5003;32622;48.202;11.326;2022-11-13T13:16:23;56;55;
46885;PMS5003;32622;48.202;11.326;2022-11-13T13:18:29;56;55;
46885;PMS5003;32622;48.202;11.326;2022-11-13T13:20:35;56;55;
46885;PMS5003;32622;48.202;11.326;2022-11-13T13:22:40;56;55;
46885;PMS5003;32622;48.202;11.326;2022-11-13T13:24:43;56;55;
46885;PMS5003;32622;48.202;11.326;2022-11-13T13:26:46;55;53;
46885;PMS5003;32622;48.202;11.326;2022-11-13T13:28:51;55;53;
46885;PMS5003;32622;48.202;11.326;2022-11-13T13:33:21;56;54;
46885;PMS5003;32622;48.202;11.326;2022-11-13T13:35:33;53;51;
46885;PMS5003;32622;48.202;11.326;2022-11-13T13:37:45;52;50;
46885;PMS5003;32622;48.202;11.326;2022-11-13T13:39:58;51;50;
46885;PMS5003;32622;48.202;11.326;2022-11-13T13:42:17;52;51;
46885;PMS5003;32622;48.202;11.326;2022-11-13T13:44:36;50;49;
46885;PMS5003;32622;48.202;11.326;2022-11-13T13:46:51;51;50;
46885;PMS5003;32622;48.202;11.326;2022-11-13T13:49:00;53;52;
46885;PMS5003;32622;48.202;11.326;2022-11-13T13:51:11;52;51;
46885;PMS5003;32622;48.202;11.326;2022-11-13T13:53:21;51;51;
46885;PMS5003;32622;48.202;11.326;2022-11-13T13:55:30;49;49;